Terminal Aerodrome Forecast
Issued by NWS Louisville, KY

Home | Current Version | Previous Version | Text Only | Print | Product List | Glossary On
Versions: 1 2 3 4 5 6 7 8 9 10 11 12 13 14 15 16
594
FTUS43 KLMK 250520
TAFLEX
TAF
KLEX 250520Z 2506/2606 34005KT P6SM OVC005
     FM251700 33009KT P6SM BKN012
     FM252200 33008KT P6SM BKN025
     FM252300 34006KT P6SM BKN045
     FM260300 VRB03KT P6SM BKN050=

USA.gov is the U.S. government's official web portal to all federal, state and local government web resources and services.